createdAt,value
2023-05-17T00:01:14.120Z,6.90
2023-05-17T00:06:17.556Z,7.30
2023-05-17T00:11:20.806Z,6.80
2023-05-17T00:16:23.993Z,8.00
2023-05-17T00:21:27.323Z,9.60
2023-05-17T00:26:30.894Z,10.40
2023-05-17T00:31:34.207Z,11.20
2023-05-17T00:36:37.559Z,11.70
2023-05-17T00:41:41.131Z,11.40
2023-05-17T00:46:44.531Z,11.40
2023-05-17T00:51:48.658Z,11.70
2023-05-17T00:56:53.252Z,12.10
2023-05-17T01:01:57.184Z,11.10
2023-05-17T01:07:02.157Z,11.30
2023-05-17T01:12:25.035Z,12.70
2023-05-17T01:17:43.764Z,12.70
2023-05-17T01:23:06.165Z,13.20
2023-05-17T01:28:12.645Z,12.50
2023-05-17T01:33:17.082Z,13.30
2023-05-17T01:38:20.593Z,13.40
2023-05-17T01:43:50.964Z,12.60
2023-05-17T01:49:09.215Z,12.30
2023-05-17T01:54:15.143Z,12.60
2023-05-17T01:59:25.429Z,12.40
2023-05-17T02:04:30.760Z,11.50
2023-05-17T02:09:34.764Z,9.80
2023-05-17T02:14:38.077Z,9.80
2023-05-17T02:19:48.990Z,10.10
2023-05-17T02:24:52.536Z,11.10
2023-05-17T02:29:55.767Z,11.00
2023-05-17T02:34:59.442Z,10.30
2023-05-17T02:40:02.811Z,11.20
2023-05-17T02:45:06.793Z,12.30
2023-05-17T02:50:10.542Z,13.30
2023-05-17T02:55:14.078Z,12.30
2023-05-17T03:00:18.052Z,11.60
2023-05-17T03:05:22.746Z,11.40
2023-05-17T03:10:28.060Z,11.90
2023-05-17T03:15:31.752Z,13.50
2023-05-17T03:20:35.224Z,12.60
2023-05-17T03:25:38.458Z,12.00
2023-05-17T03:30:42.047Z,12.10
2023-05-17T03:35:48.616Z,13.20
2023-05-17T03:40:53.416Z,14.60
2023-05-17T03:45:57.236Z,12.50
2023-05-17T03:51:00.954Z,11.00
2023-05-17T03:56:04.847Z,10.00
2023-05-17T04:01:09.016Z,9.50
2023-05-17T04:06:14.138Z,10.50
2023-05-17T04:11:23.860Z,11.10
2023-05-17T04:16:27.475Z,10.40
2023-05-17T04:21:31.478Z,8.70
2023-05-17T04:26:34.684Z,8.70
2023-05-17T04:31:38.062Z,8.10
2023-05-17T04:36:41.932Z,9.40
2023-05-17T04:41:46.813Z,9.00
2023-05-17T04:46:52.294Z,8.40
2023-05-17T04:51:55.891Z,8.20
2023-05-17T04:56:59.820Z,7.80
2023-05-17T05:02:21.827Z,9.00
2023-05-17T05:07:25.380Z,9.40
2023-05-17T05:12:29.058Z,7.70
2023-05-17T05:17:33.874Z,7.40
2023-05-17T05:22:37.910Z,6.60
2023-05-17T05:27:41.796Z,7.10
2023-05-17T05:32:45.268Z,8.20
2023-05-17T05:37:48.948Z,9.20
2023-05-17T05:42:52.677Z,8.10
2023-05-17T05:47:57.113Z,7.30
2023-05-17T05:53:10.957Z,6.70
2023-05-17T05:58:22.512Z,6.60
2023-05-17T06:03:26.808Z,6.90
2023-05-17T06:08:30.203Z,6.20
2023-05-17T06:13:33.471Z,6.00
2023-05-17T06:18:36.886Z,6.60
2023-05-17T06:23:40.274Z,7.10
2023-05-17T06:28:43.542Z,7.10
2023-05-17T06:33:47.049Z,6.60
2023-05-17T06:38:50.395Z,7.30
2023-05-17T06:43:53.577Z,6.20
2023-05-17T06:48:57.708Z,5.80
2023-05-17T06:54:01.313Z,6.60
2023-05-17T06:59:04.526Z,7.30
2023-05-17T07:04:07.945Z,8.10
2023-05-17T07:09:13.112Z,9.80
2023-05-17T07:14:16.324Z,8.10
2023-05-17T07:19:20.067Z,7.50
2023-05-17T07:24:23.547Z,7.10
2023-05-17T07:29:26.885Z,7.20
2023-05-17T07:34:33.158Z,6.10
2023-05-17T07:39:39.526Z,6.40
2023-05-17T07:44:42.919Z,7.70
2023-05-17T07:49:46.310Z,6.70
2023-05-17T07:54:49.634Z,6.60
2023-05-17T07:59:52.933Z,6.70
2023-05-17T08:04:56.342Z,6.00
2023-05-17T08:09:59.723Z,5.30
2023-05-17T08:15:04.161Z,5.10
2023-05-17T08:20:09.006Z,4.30
2023-05-17T08:25:12.392Z,4.60
2023-05-17T08:30:25.369Z,4.70
2023-05-17T08:35:32.538Z,4.00
2023-05-17T08:40:36.014Z,3.90
2023-05-17T08:45:39.516Z,4.60
2023-05-17T08:50:45.202Z,4.10
2023-05-17T08:55:51.441Z,4.90
2023-05-17T09:00:57.743Z,5.60
2023-05-17T09:06:01.483Z,5.10
2023-05-17T09:11:05.192Z,5.70
2023-05-17T09:16:14.138Z,6.70
2023-05-17T09:21:17.441Z,7.00
2023-05-17T09:26:24.785Z,9.10
2023-05-17T09:31:28.260Z,8.20
2023-05-17T09:36:32.265Z,8.50
2023-05-17T09:41:48.190Z,12.30
2023-05-17T09:46:53.040Z,9.50
2023-05-17T09:51:57.309Z,9.60
2023-05-17T09:57:07.895Z,7.80
2023-05-17T10:02:18.049Z,8.20
2023-05-17T10:07:22.028Z,8.00
2023-05-17T10:12:31.707Z,8.70
2023-05-17T10:17:36.062Z,8.80
2023-05-17T10:22:42.093Z,7.70
2023-05-17T10:27:47.481Z,8.80
2023-05-17T10:32:51.959Z,9.80
2023-05-17T10:37:56.145Z,9.20
2023-05-17T10:43:02.467Z,8.60
2023-05-17T10:48:08.867Z,7.70
2023-05-17T10:53:13.568Z,10.40
2023-05-17T10:58:20.804Z,8.50
2023-05-17T11:03:34.163Z,7.40
2023-05-17T11:08:43.481Z,6.50
2023-05-17T11:13:52.620Z,5.40
2023-05-17T11:19:06.724Z,5.90
2023-05-17T11:24:14.608Z,5.50
2023-05-17T11:29:20.561Z,5.60
2023-05-17T11:34:25.781Z,5.30
2023-05-17T11:39:29.160Z,5.70
2023-05-17T11:44:34.813Z,6.60
2023-05-17T11:49:39.830Z,6.00
2023-05-17T11:54:43.595Z,5.90
2023-05-17T11:59:47.057Z,5.80
2023-05-17T12:04:50.633Z,5.90
2023-05-17T12:09:54.180Z,6.40
2023-05-17T12:15:21.318Z,6.70
2023-05-17T12:20:24.776Z,6.50
2023-05-17T12:25:29.887Z,6.60
2023-05-17T12:30:33.209Z,6.70
2023-05-17T12:35:36.799Z,7.30
2023-05-17T12:40:43.266Z,6.80
2023-05-17T12:45:48.032Z,6.70
2023-05-17T12:50:52.470Z,7.10
2023-05-17T12:55:58.238Z,7.10
2023-05-17T13:01:03.485Z,8.30
2023-05-17T13:06:09.706Z,7.80
2023-05-17T13:11:14.787Z,7.30
2023-05-17T13:16:18.480Z,7.30
2023-05-17T13:21:22.180Z,8.00
2023-05-17T13:26:28.109Z,8.90
2023-05-17T13:31:31.662Z,8.80
2023-05-17T13:36:34.969Z,8.10
2023-05-17T13:41:39.233Z,7.80
2023-05-17T13:46:42.505Z,8.40
2023-05-17T13:51:46.215Z,8.60
2023-05-17T13:56:49.570Z,7.20
2023-05-17T14:01:53.434Z,6.80
2023-05-17T14:06:57.143Z,7.60
2023-05-17T14:12:04.613Z,7.30
2023-05-17T14:17:08.075Z,7.80
2023-05-17T14:22:11.534Z,6.40
2023-05-17T14:27:14.907Z,7.50
2023-05-17T14:32:18.059Z,7.30
2023-05-17T14:37:22.116Z,6.80
2023-05-17T14:42:27.027Z,6.70
2023-05-17T14:47:30.305Z,6.60
2023-05-17T14:52:35.149Z,6.00
2023-05-17T14:57:40.304Z,5.80
2023-05-17T15:02:43.655Z,5.20
2023-05-17T15:07:47.772Z,5.10
2023-05-17T15:12:51.017Z,4.80
2023-05-17T15:17:54.480Z,5.40
2023-05-17T15:22:57.838Z,4.80
2023-05-17T15:28:01.147Z,5.10
2023-05-17T15:33:04.748Z,5.10
2023-05-17T15:38:08.096Z,5.70
2023-05-17T15:43:12.029Z,5.10
2023-05-17T15:48:15.309Z,4.90
2023-05-17T15:53:18.774Z,5.80
2023-05-17T15:58:24.053Z,6.00
2023-05-17T16:03:27.457Z,6.30
2023-05-17T16:08:31.098Z,6.00
2023-05-17T16:13:34.227Z,6.00
2023-05-17T16:18:37.510Z,7.10
2023-05-17T16:23:40.964Z,6.80
2023-05-17T16:28:44.522Z,6.40
2023-05-17T16:33:47.934Z,6.10
2023-05-17T16:38:52.710Z,6.30
2023-05-17T16:43:56.250Z,7.10
2023-05-17T16:48:59.722Z,6.50
2023-05-17T16:54:03.643Z,5.30
2023-05-17T16:59:06.947Z,4.80
2023-05-17T17:04:10.488Z,5.70
2023-05-17T17:09:14.544Z,6.00
2023-05-17T17:14:18.873Z,5.60
2023-05-17T17:19:22.746Z,19.20
2023-05-17T17:24:26.399Z,39.70
2023-05-17T17:29:29.879Z,12.30
2023-05-17T17:34:34.039Z,20.60
2023-05-17T17:39:37.455Z,12.90
2023-05-17T17:44:40.854Z,14.90
2023-05-17T17:49:44.213Z,30.20
2023-05-17T17:55:08.318Z,25.50
2023-05-17T18:00:13.315Z,14.90
2023-05-17T18:05:16.829Z,25.10
2023-05-17T18:10:20.390Z,24.60
2023-05-17T18:15:23.886Z,15.60
2023-05-17T18:20:27.279Z,12.40
2023-05-17T18:25:30.875Z,12.30
2023-05-17T18:30:34.195Z,12.20
2023-05-17T18:35:37.584Z,14.50
2023-05-17T18:40:40.883Z,12.10
2023-05-17T18:45:44.110Z,10.70
2023-05-17T18:50:47.426Z,20.70
2023-05-17T18:55:50.733Z,15.60
2023-05-17T19:00:55.303Z,14.60
2023-05-17T19:05:58.808Z,10.70
2023-05-17T19:11:04.299Z,22.20
2023-05-17T19:16:08.064Z,8.60
2023-05-17T19:21:11.743Z,24.50
2023-05-17T19:26:14.900Z,16.10
2023-05-17T19:31:18.372Z,38.50
2023-05-17T19:36:21.490Z,8.60
2023-05-17T19:41:24.741Z,8.40
2023-05-17T19:46:28.240Z,7.10
2023-05-17T19:51:31.942Z,7.40
2023-05-17T19:56:35.370Z,9.30
2023-05-17T20:01:38.693Z,7.70
2023-05-17T20:06:42.146Z,8.50
2023-05-17T20:11:45.597Z,8.90
2023-05-17T20:16:49.041Z,7.10
2023-05-17T20:21:52.734Z,7.50
2023-05-17T20:27:08.853Z,8.00
2023-05-17T20:32:15.058Z,8.00
2023-05-17T20:37:18.999Z,8.40
2023-05-17T20:42:22.694Z,7.20
2023-05-17T20:47:26.283Z,6.40
2023-05-17T20:52:38.760Z,11.20
2023-05-17T20:57:43.228Z,6.60
2023-05-17T21:03:05.102Z,6.70
2023-05-17T21:08:17.531Z,6.30
2023-05-17T21:14:13.417Z,6.40
2023-05-17T21:19:16.936Z,6.60
2023-05-17T21:24:20.393Z,6.60
2023-05-17T21:29:23.964Z,6.40
2023-05-17T21:34:27.368Z,6.20
2023-05-17T21:39:33.544Z,5.70
2023-05-17T21:44:36.984Z,6.30
2023-05-17T21:49:40.515Z,6.50
2023-05-17T21:54:44.182Z,5.90
2023-05-17T21:59:48.836Z,4.90
2023-05-17T22:04:53.500Z,4.20
2023-05-17T22:09:58.554Z,5.00
2023-05-17T22:15:02.785Z,5.00
2023-05-17T22:20:10.626Z,4.70
2023-05-17T22:25:15.734Z,3.90
2023-05-17T22:30:19.800Z,3.70
2023-05-17T22:35:24.706Z,3.10
2023-05-17T22:40:28.331Z,3.60
2023-05-17T22:45:34.929Z,3.40
2023-05-17T22:50:38.866Z,3.40
2023-05-17T22:55:48.750Z,2.80
2023-05-17T23:07:47.626Z,3.20
2023-05-17T23:12:52.447Z,2.90
2023-05-17T23:17:59.710Z,2.50
2023-05-17T23:23:02.925Z,2.70
2023-05-17T23:28:06.116Z,2.90
2023-05-17T23:33:09.346Z,2.60
2023-05-17T23:38:12.574Z,2.80
2023-05-17T23:43:15.903Z,2.60
2023-05-17T23:48:21.081Z,2.60
2023-05-17T23:53:26.290Z,2.60
2023-05-17T23:58:29.518Z,2.30
